createdAt,value
2023-02-16T00:02:00.626Z,84
2023-02-16T00:05:25.772Z,84
2023-02-16T00:08:50.982Z,83
2023-02-16T00:12:16.234Z,84
2023-02-16T00:15:41.444Z,85
2023-02-16T00:19:06.641Z,85
2023-02-16T00:22:31.851Z,86
2023-02-16T00:25:57.096Z,86
2023-02-16T00:29:22.325Z,85
2023-02-16T00:32:47.520Z,82
2023-02-16T00:36:12.680Z,83
2023-02-16T00:39:37.916Z,83
2023-02-16T00:43:03.110Z,84
2023-02-16T00:46:28.355Z,87
2023-02-16T00:49:53.501Z,87
2023-02-16T00:53:18.716Z,86
2023-02-16T00:56:43.922Z,86
2023-02-16T01:00:09.137Z,86
2023-02-16T01:03:34.390Z,86
2023-02-16T01:06:59.519Z,86
2023-02-16T01:10:24.731Z,87
2023-02-16T01:13:49.936Z,88
2023-02-16T01:17:15.138Z,87
2023-02-16T01:20:40.322Z,88
2023-02-16T01:24:05.513Z,88
2023-02-16T01:27:30.712Z,89
2023-02-16T01:30:55.979Z,90
2023-02-16T01:34:21.082Z,90
2023-02-16T01:37:46.350Z,90
2023-02-16T01:41:11.552Z,91
2023-02-16T01:44:36.765Z,91
2023-02-16T01:48:01.959Z,91
2023-02-16T01:51:27.168Z,91
2023-02-16T01:54:52.374Z,91
2023-02-16T01:58:17.554Z,91
2023-02-16T02:01:42.821Z,91
2023-02-16T02:05:07.972Z,91
2023-02-16T02:08:33.184Z,91
2023-02-16T02:11:58.434Z,91
2023-02-16T02:15:23.620Z,91
2023-02-16T02:18:48.822Z,91
2023-02-16T02:22:13.996Z,92
2023-02-16T02:25:39.179Z,92
2023-02-16T02:29:04.415Z,91
2023-02-16T02:32:29.586Z,92
2023-02-16T02:35:54.777Z,92
2023-02-16T02:39:19.993Z,92
2023-02-16T02:42:45.205Z,92
2023-02-16T02:46:10.522Z,92
2023-02-16T02:49:35.610Z,91
2023-02-16T02:53:00.854Z,91
2023-02-16T02:56:26.084Z,91
2023-02-16T02:59:51.350Z,91
2023-02-16T03:03:16.556Z,91
2023-02-16T03:06:41.719Z,91
2023-02-16T03:10:06.968Z,91
2023-02-16T03:13:32.190Z,90
2023-02-16T03:16:57.424Z,90
2023-02-16T03:20:22.639Z,89
2023-02-16T03:23:47.832Z,89
2023-02-16T03:27:13.054Z,89
2023-02-16T03:30:38.376Z,88
2023-02-16T03:34:03.494Z,88
2023-02-16T03:37:28.725Z,88
2023-02-16T03:40:53.947Z,88
2023-02-16T03:44:19.165Z,88
2023-02-16T03:47:44.379Z,87
2023-02-16T03:51:09.618Z,87
2023-02-16T03:54:34.834Z,87
2023-02-16T03:57:59.990Z,87
2023-02-16T04:01:25.204Z,87
2023-02-16T04:04:50.424Z,88
2023-02-16T04:08:15.637Z,88
2023-02-16T04:11:40.884Z,88
2023-02-16T04:15:06.104Z,87
2023-02-16T04:18:31.324Z,88
2023-02-16T04:21:56.526Z,87
2023-02-16T04:25:21.707Z,87
2023-02-16T04:28:46.972Z,87
2023-02-16T04:32:12.292Z,87
2023-02-16T04:35:37.378Z,86
2023-02-16T04:39:02.601Z,86
2023-02-16T04:42:27.809Z,85
2023-02-16T04:45:53.159Z,85
2023-02-16T04:49:18.257Z,85
2023-02-16T04:52:43.455Z,85
2023-02-16T04:56:08.700Z,84
2023-02-16T04:59:33.918Z,84
2023-02-16T05:02:59.159Z,83
2023-02-16T05:06:24.327Z,82
2023-02-16T05:09:49.526Z,82
2023-02-16T05:13:14.729Z,82
2023-02-16T05:16:39.922Z,81
2023-02-16T05:20:05.149Z,82
2023-02-16T05:23:30.354Z,82
2023-02-16T05:26:55.561Z,82
2023-02-16T05:30:20.848Z,81
2023-02-16T05:33:45.938Z,82
2023-02-16T05:37:11.160Z,80
2023-02-16T05:40:36.314Z,82
2023-02-16T05:44:01.531Z,81
2023-02-16T05:47:26.729Z,82
2023-02-16T05:50:51.906Z,85
2023-02-16T05:54:17.163Z,86
2023-02-16T05:57:42.325Z,86
2023-02-16T06:01:07.748Z,85
2023-02-16T06:04:33.076Z,85
2023-02-16T06:07:58.301Z,85
2023-02-16T06:11:23.530Z,85
2023-02-16T06:14:48.688Z,84
2023-02-16T06:18:13.985Z,84
2023-02-16T06:21:39.138Z,84
2023-02-16T06:25:04.397Z,84
2023-02-16T06:28:29.569Z,84
2023-02-16T06:31:54.950Z,84
2023-02-16T06:35:19.971Z,84
2023-02-16T06:38:45.186Z,84
2023-02-16T06:42:10.393Z,85
2023-02-16T06:45:35.627Z,84
2023-02-16T06:49:00.827Z,84
2023-02-16T06:52:26.026Z,83
2023-02-16T06:55:51.236Z,83
2023-02-16T06:59:16.459Z,83
2023-02-16T07:02:41.720Z,83
2023-02-16T07:06:06.946Z,83
2023-02-16T07:09:32.180Z,83
2023-02-16T07:12:57.406Z,82
2023-02-16T07:16:22.616Z,82
2023-02-16T07:19:47.844Z,82
2023-02-16T07:23:13.836Z,82
2023-02-16T07:26:39.024Z,82
2023-02-16T07:30:04.290Z,81
2023-02-16T07:33:29.407Z,81
2023-02-16T07:36:54.648Z,80
2023-02-16T07:40:19.837Z,80
2023-02-16T07:43:44.996Z,80
2023-02-16T07:47:10.181Z,80
2023-02-16T07:50:35.368Z,80
2023-02-16T07:54:00.581Z,80
2023-02-16T07:57:25.731Z,80
2023-02-16T08:00:50.928Z,80
2023-02-16T08:04:16.156Z,80
2023-02-16T08:07:41.363Z,81
2023-02-16T08:11:06.804Z,81
2023-02-16T08:14:31.760Z,81
2023-02-16T08:17:56.962Z,81
2023-02-16T08:21:22.184Z,81
2023-02-16T08:24:47.393Z,81
2023-02-16T08:28:12.594Z,81
2023-02-16T08:31:37.839Z,81
2023-02-16T08:35:02.992Z,80
2023-02-16T08:38:28.164Z,80
2023-02-16T08:41:53.370Z,81
2023-02-16T08:45:18.605Z,81
2023-02-16T08:48:43.756Z,81
2023-02-16T08:52:08.974Z,82
2023-02-16T08:55:34.142Z,81
2023-02-16T08:58:59.357Z,81
2023-02-16T09:02:25.322Z,81
2023-02-16T09:05:50.442Z,81
2023-02-16T09:09:15.729Z,81
2023-02-16T09:12:40.978Z,80
2023-02-16T09:16:06.497Z,81
2023-02-16T09:19:31.519Z,81
2023-02-16T09:22:56.606Z,81
2023-02-16T09:26:21.784Z,81
2023-02-16T09:29:46.987Z,81
2023-02-16T09:33:12.164Z,80
2023-02-16T09:36:37.395Z,81
2023-02-16T09:40:02.543Z,81
2023-02-16T09:43:27.774Z,80
2023-02-16T09:46:54.232Z,80
2023-02-16T09:50:27.620Z,80
2023-02-16T09:53:44.618Z,80
2023-02-16T09:57:09.819Z,79
2023-02-16T10:00:35.039Z,79
2023-02-16T10:04:00.335Z,79
2023-02-16T10:07:25.504Z,79
2023-02-16T10:10:50.748Z,79
2023-02-16T10:14:15.882Z,78
2023-02-16T10:17:41.074Z,79
2023-02-16T10:21:06.578Z,79
2023-02-16T10:24:31.499Z,79
2023-02-16T10:27:56.722Z,79
2023-02-16T10:31:21.993Z,78
2023-02-16T10:34:47.080Z,79
2023-02-16T10:38:12.371Z,77
2023-02-16T10:41:37.621Z,78
2023-02-16T10:45:02.821Z,78
2023-02-16T10:48:27.982Z,79
2023-02-16T10:51:53.162Z,78
2023-02-16T10:55:18.396Z,78
2023-02-16T10:58:43.578Z,79
2023-02-16T11:02:08.809Z,79
2023-02-16T11:05:33.964Z,80
2023-02-16T11:08:59.166Z,80
2023-02-16T11:12:24.354Z,80
2023-02-16T11:15:49.528Z,79
2023-02-16T11:19:14.744Z,78
2023-02-16T11:22:39.933Z,78
2023-02-16T11:26:05.196Z,78
2023-02-16T11:29:30.416Z,79
2023-02-16T11:32:55.630Z,78
2023-02-16T11:36:20.848Z,77
2023-02-16T11:39:46.035Z,77
2023-02-16T11:43:11.279Z,77
2023-02-16T11:46:36.584Z,77
2023-02-16T11:50:01.731Z,76
2023-02-16T11:53:26.977Z,76
2023-02-16T11:56:52.170Z,75
2023-02-16T12:00:17.395Z,75
2023-02-16T12:03:42.618Z,74
2023-02-16T12:07:07.828Z,75
2023-02-16T12:10:33.087Z,74
2023-02-16T12:13:58.263Z,74
2023-02-16T12:17:23.515Z,74
2023-02-16T12:20:48.716Z,74
2023-02-16T12:24:14.025Z,74
2023-02-16T12:27:39.172Z,74
2023-02-16T12:31:04.405Z,74
2023-02-16T12:34:29.555Z,75
2023-02-16T12:37:54.814Z,75
2023-02-16T12:41:20.060Z,76
2023-02-16T12:44:45.272Z,75
2023-02-16T12:48:10.505Z,75
2023-02-16T12:51:35.729Z,75
2023-02-16T12:55:00.972Z,75
2023-02-16T12:58:26.176Z,74
2023-02-16T13:01:51.448Z,74
2023-02-16T13:05:16.649Z,73
2023-02-16T13:08:41.871Z,73
2023-02-16T13:12:07.088Z,73
2023-02-16T13:15:32.303Z,74
2023-02-16T13:18:57.567Z,73
2023-02-16T13:22:22.716Z,74
2023-02-16T13:25:48.094Z,73
2023-02-16T13:29:13.249Z,73
2023-02-16T13:32:38.393Z,74
2023-02-16T13:36:03.942Z,73
2023-02-16T13:39:28.807Z,73
2023-02-16T13:42:54.003Z,73
2023-02-16T13:46:19.222Z,73
2023-02-16T13:49:44.436Z,73
2023-02-16T13:53:09.660Z,72
2023-02-16T13:56:34.848Z,73
2023-02-16T14:00:00.087Z,73
2023-02-16T14:03:25.313Z,73
2023-02-16T14:06:50.538Z,72
2023-02-16T14:10:15.770Z,74
2023-02-16T14:13:40.955Z,73
2023-02-16T14:17:06.183Z,75
2023-02-16T14:20:31.425Z,75
2023-02-16T14:23:56.645Z,76
2023-02-16T14:27:21.926Z,77
2023-02-16T14:30:47.163Z,77
2023-02-16T15:06:09.752Z,82
2023-02-16T15:09:34.994Z,82
2023-02-16T15:13:00.177Z,82
2023-02-16T15:16:25.690Z,82
2023-02-16T15:19:50.938Z,83
2023-02-16T15:23:16.141Z,83
2023-02-16T15:26:41.316Z,84
2023-02-16T15:30:06.616Z,85
2023-02-16T15:33:31.801Z,85
2023-02-16T15:36:57.020Z,86
2023-02-16T15:40:25.689Z,86
2023-02-16T15:43:47.430Z,87
2023-02-16T15:47:12.646Z,87
2023-02-16T15:50:37.863Z,87
2023-02-16T15:54:03.178Z,86
2023-02-16T15:57:28.397Z,86
2023-02-16T16:00:53.620Z,86
2023-02-16T16:04:18.830Z,86
2023-02-16T16:07:44.045Z,85
2023-02-16T16:11:09.289Z,85
2023-02-16T16:14:34.529Z,85
2023-02-16T16:17:59.756Z,85
2023-02-16T16:21:24.937Z,85
2023-02-16T16:24:50.151Z,85
2023-02-16T16:28:15.383Z,84
2023-02-16T16:31:40.706Z,84
2023-02-16T16:35:05.864Z,84
2023-02-16T16:38:31.061Z,84
2023-02-16T16:41:56.258Z,84
2023-02-16T16:45:21.494Z,84
2023-02-16T16:48:46.770Z,84
2023-02-16T16:52:11.976Z,84
2023-02-16T16:55:37.184Z,85
2023-02-16T16:59:02.406Z,85
2023-02-16T17:02:27.575Z,85
2023-02-16T17:05:52.831Z,86
2023-02-16T17:09:17.987Z,86
2023-02-16T17:12:43.181Z,86
2023-02-16T17:16:08.598Z,86
2023-02-16T17:19:33.741Z,86
2023-02-16T17:22:58.998Z,86
2023-02-16T17:26:24.198Z,85
2023-02-16T17:29:49.635Z,86
2023-02-16T17:33:14.962Z,86
2023-02-16T17:36:40.174Z,86
2023-02-16T17:40:05.495Z,86
2023-02-16T17:43:30.656Z,85
2023-02-16T17:46:55.851Z,85
2023-02-16T17:50:21.125Z,85
2023-02-16T17:53:46.314Z,85
2023-02-16T17:57:11.589Z,85
2023-02-16T18:00:36.801Z,85
2023-02-16T18:04:02.072Z,85
2023-02-16T18:07:27.300Z,85
2023-02-16T18:10:52.570Z,85
2023-02-16T18:14:17.775Z,85
2023-02-16T18:17:43.002Z,85
2023-02-16T18:21:08.273Z,85
2023-02-16T18:24:33.577Z,85
2023-02-16T18:27:58.873Z,86
2023-02-16T18:31:24.263Z,86
2023-02-16T18:34:49.330Z,87
2023-02-16T18:38:14.581Z,87
2023-02-16T18:41:39.805Z,88
2023-02-16T18:45:05.030Z,88
2023-02-16T18:48:30.306Z,89
2023-02-16T18:51:55.547Z,88
2023-02-16T18:55:20.845Z,88
2023-02-16T18:58:46.084Z,88
2023-02-16T19:02:11.343Z,88
2023-02-16T19:05:36.578Z,88
2023-02-16T19:09:01.810Z,88
2023-02-16T19:12:27.062Z,88
2023-02-16T19:15:52.372Z,88
2023-02-16T19:19:17.570Z,87
2023-02-16T19:22:42.840Z,87
2023-02-16T19:26:08.082Z,87
2023-02-16T19:29:33.405Z,86
2023-02-16T19:32:58.663Z,86
2023-02-16T19:36:23.940Z,86
2023-02-16T19:39:49.224Z,86
2023-02-16T19:43:14.460Z,86
2023-02-16T19:46:39.921Z,86
2023-02-16T19:50:04.973Z,87
2023-02-16T19:53:30.260Z,87
2023-02-16T19:56:55.524Z,87
2023-02-16T20:00:20.761Z,87
2023-02-16T20:03:46.000Z,87
2023-02-16T20:07:11.248Z,87
2023-02-16T20:10:36.565Z,87
2023-02-16T20:14:01.820Z,86
2023-02-16T20:17:27.042Z,86
2023-02-16T20:20:52.289Z,86
2023-02-16T20:24:17.553Z,85
2023-02-16T20:27:42.835Z,85
2023-02-16T20:31:08.222Z,85
2023-02-16T20:34:33.320Z,85
2023-02-16T20:37:58.571Z,85
2023-02-16T20:41:23.871Z,85
2023-02-16T20:44:49.105Z,85
2023-02-16T20:48:14.295Z,85
2023-02-16T20:51:39.485Z,85
2023-02-16T20:55:04.682Z,85
2023-02-16T20:58:29.864Z,85
2023-02-16T21:01:55.119Z,86
2023-02-16T21:05:20.273Z,85
2023-02-16T21:08:45.489Z,85
2023-02-16T21:12:10.643Z,85
2023-02-16T21:15:35.804Z,85
2023-02-16T21:19:01.026Z,85
2023-02-16T21:22:26.226Z,85
2023-02-16T21:25:51.374Z,85
2023-02-16T21:29:16.569Z,85
2023-02-16T21:32:41.761Z,85
2023-02-16T21:36:07.241Z,85
2023-02-16T21:39:32.162Z,85
2023-02-16T21:42:57.334Z,85
2023-02-16T21:46:22.539Z,85
2023-02-16T21:49:47.715Z,85
2023-02-16T21:53:13.822Z,85
2023-02-16T21:56:39.033Z,85
2023-02-16T22:00:04.197Z,85
2023-02-16T22:03:29.404Z,84
2023-02-16T22:06:54.615Z,84
2023-02-16T22:10:19.760Z,84
2023-02-16T22:13:44.961Z,84
2023-02-16T22:17:10.135Z,84
2023-02-16T22:20:35.313Z,84
2023-02-16T22:24:00.502Z,84
2023-02-16T22:27:25.713Z,84
2023-02-16T22:30:50.941Z,84
2023-02-16T22:34:16.092Z,84
2023-02-16T22:37:41.521Z,85
2023-02-16T22:41:06.860Z,85
2023-02-16T22:44:35.837Z,85
2023-02-16T22:48:02.409Z,85
2023-02-16T22:51:29.362Z,85
2023-02-16T22:54:54.455Z,85
2023-02-16T22:58:19.911Z,85
2023-02-16T23:01:46.777Z,85
2023-02-16T23:05:31.632Z,85
2023-02-16T23:08:56.816Z,85
2023-02-16T23:12:21.991Z,85
2023-02-16T23:15:47.153Z,85
2023-02-16T23:19:12.334Z,86
2023-02-16T23:22:37.534Z,86
2023-02-16T23:26:02.789Z,86
2023-02-16T23:29:27.876Z,86
2023-02-16T23:32:53.081Z,86
2023-02-16T23:36:18.252Z,86
2023-02-16T23:39:43.460Z,86
2023-02-16T23:43:08.636Z,86
2023-02-16T23:46:33.822Z,86
2023-02-16T23:49:59.001Z,86
2023-02-16T23:53:24.201Z,86
2023-02-16T23:56:51.255Z,86
